AirNav   TITAN Aviation Fuels
 
 396 users online  

2SC4 Salty Fare Landng Seaplane Base
Hilton Head, South Carolina, USA

GOING TO HILTON HEAD?


FAA INFORMATION EFFECTIVE 22 APRIL 2021

Location

FAA Identifier: 2SC4
Lat/Long: 32-14-02.0000N 080-45-15.0000W
32-14.033333N 080-45.250000W
32.2338889,-80.7541667
(estimated)
Elevation: 0 ft. / 0 m (estimated)
Variation: 05W (1995)
From city: 2 miles W of HILTON HEAD, SC
Time zone: UTC -4 (UTC -5 during Standard Time)
Zip code: 29926

Seaplane Base Operations

Seaplane Base use: Private use. Permission required prior to landing
Activation date: 07/1999
Control tower: no
ARTCC: JACKSONVILLE CENTER
FSS: ANDERSON FLIGHT SERVICE STATION
Attendance: IREG
Segmented circle: no

Seaplane Base Communications

WX AWOS-3P at HXD (2.9 nm E): 121.4 (843-342-5072)
WX AWOS-3 at ARW (12 nm NE): 119.675 (843-524-1000)

Nearby radio navigation aids

VOR radial/distance  VOR name  Freq  Var
SAVr083/23.2SAVANNAH VORTAC115.9506W
SVNr058/23.7HUNTER VOR/DME111.6002W

Seaplane Base Services

Runway Information

Runway 6W/24W

Dimensions: 5000 x 200 ft. / 1524 x 61 m
Surface: water
RUNWAY 6W  RUNWAY 24W
Traffic pattern: leftright

Seaplane Base Ownership and Management from official FAA records

Ownership: Privately-owned
Owner: NY ESCAPE INC
3 BOXTAIL CRESCENT
BLUFFTON, SC 29910
Phone 843-227-1422
Manager: JOEL T. DE GRANDIS
3 BOXTAIL CRESCENT
BLUFFTON, SC 29910
Phone 843-227-1422

Seaplane Base Operational Statistics

Aircraft based on the field: 1
Single engine airplanes: 1
    

Additional Remarks

DOCKING FEE - 24 HR PPR CALL 919-966-1100.
SEAPLANE BASE LCTD ON SKULL CREEK.
VFR DALGT OPNS ONLY.
60 FT BRIDGE & 80 FT POWER LINES 1 NM SOUTHWEST OF SEAPLANE BASE.
FOR CD CTC SAVANNAH APCH AT 912-964-3205, WHEN APCH CLSD CTC JACKSONVILLE ARTCC AT 904-845-1592.

Instrument Procedures

There are no published instrument procedures at 2SC4.

Some nearby airports with instrument procedures:

KHXD - Hilton Head Airport (3 nm E)
KARW - Beaufort Executive Airport (12 nm NE)
KNBC - Beaufort Marine Corps Air Station (Merritt Field) (15 nm N)
KSAV - Savannah/Hilton Head International Airport (24 nm W)
KSVN - Hunter Army Airfield (24 nm SW)
 
Loc | Ops | Rwys | IFR | FBO | Links
Com | Nav | Svcs | Stats | Notes
Area around 2SC4 (Salty Fare Landng Seaplane Base)
 
Road maps at: MapQuest Bing Google
 
Aerial photo
No photo
 
Sectional chart

 
Airport distance calculator
Flying to Salty Fare Landng Seaplane Base? Find the distance to fly.

From to 2SC4

Sunrise and sunset
Times for 09-May-2021
 Local
(UTC-4)
 Zulu
(UTC)
Morning civil twilight06:0410:04
Sunrise06:3110:31
Sunset20:0800:08
Evening civil twilight20:3500:35

Current date and time
Zulu (UTC)  09-May-2021 07:08:56
Local (UTC-4)  09-May-2021 03:08:56
 
METAR
KHXD 
3nm E 
090655Z AUTO 00000KT 10SM CLR 17/14 A3010 RMK AO2
KARW 
12nm NE 
090655Z AUTO 23003KT 10SM CLR 17/15 A3009 RMK AO2
KNBC 
14nm N 
090656Z AUTO 22004KT CLR 16/12 A3009 RMK AO2 SLP191 T01610122
TAF
KNBC 
14nm N 
0903/1003 20005KT 9999 FEW100 QNH3009INS FM090630 VRB05KT 9999 SCT120 QNH3008INS FM091330 19005G15KT 9999 SKC QNH3013INS FM091530 18015G25KT 9999 SKC QNH3009INS BECMG 0917/0919 18015G30KT 9999 SKC QNH3005INS T19/0909Z T27/0919Z
NOTAMs
Click for the latest NOTAMs
NOTAMs are issued by the DoD/FAA and will open in a separate window not controlled by AirNav.

 

 
 

Would you like to see your business listed on this page?

 If your business provides an interesting product or service to pilots, flight crews, aircraft, or users of the Salty Fare Landng Seaplane Base, you should consider listing it here.  To start the listing process, click on the button below
 
Add a business
 

Other Pages about Salty Fare Landng Seaplane Base

Update a link
 
Copyright © AirNav, LLC. All rights reserved. Privacy Policy  Contact